Time;durP1;ratioP1;P1;durP2;ratioP2;P2;SDS_P1;SDS_P2;PMS_P1;PMS_P2;Temp;Humidity;BMP_temperature;BMP_pressure;BME280_temperature;BME280_humidity;BME280_pressure;Samples;Min_cycle;Max_cycle;Signal;HPM_P1;HPM_P2
2022/05/18 00:00:16;;;;;;;;;;;;;;;15.94;41.63;96045.84;5021442;28;19996;-66
2022/05/18 00:02:41;;;;;;;;;;;;;;;15.91;41.35;96042.75;5023774;28;19960;-66
2022/05/18 00:05:07;;;;;;;;;;;;;;;15.86;41.71;96049.53;5023487;28;19989;-66
2022/05/18 00:07:32;;;;;;;;;;;;;;;15.77;42.96;96042.69;5023145;28;19985;-66
2022/05/18 00:09:57;;;;;;;;;;;;;;;15.79;41.78;96035.28;5016690;28;19961;-69
2022/05/18 00:12:23;;;;;;;;;;;;;;;15.79;41.35;96047.84;5023108;28;20021;-70
2022/05/18 00:14:48;;;;;;;;;;;;;;;15.73;42.27;96050.31;5023136;28;19993;-70
2022/05/18 00:17:13;;;;;;;;;;;;;;;15.70;41.59;96049.88;5022081;28;20494;-70
2022/05/18 00:19:38;;;;;;;;;;;;;;;15.66;42.31;96060.19;5017860;28;20098;-69
2022/05/18 00:22:04;;;;;;;;;;;;;;;15.63;42.70;96047.16;5023264;28;19971;-70
2022/05/18 00:24:29;;;;;;;;;;;;;;;15.63;42.12;96052.53;5021720;28;19980;-66
2022/05/18 00:26:55;;;;;;;;;;;;;;;15.59;42.40;96052.13;5022793;28;20385;-66
2022/05/18 00:29:20;;;;;;;;;;;;;;;15.60;41.94;96047.56;5022896;28;19979;-66
2022/05/18 00:31:48;;;;;;;;;;;;;;;15.57;42.18;96045.31;5015271;28;20317;-66
2022/05/18 00:34:16;;;;;;;;;;;;;;;15.52;42.66;96051.22;5004276;28;20617;-66
2022/05/18 00:36:41;;;;;;;;;;;;;;;15.53;42.32;96046.69;5003182;28;19979;-66
2022/05/18 00:39:06;;;;;;;;;;;;;;;15.55;42.31;96052.69;5009517;28;20011;-66
2022/05/18 00:41:31;;;;;;;;;;;;;;;15.56;41.78;96051.66;5010257;28;20376;-70
2022/05/18 00:43:57;;;;;;;;;;;;;;;15.51;42.39;96049.56;5005708;28;19974;-69
2022/05/18 00:46:22;;;;;;;;;;;;;;;15.49;42.56;96052.44;5009311;28;20008;-69
2022/05/18 00:48:47;;;;;;;;;;;;;;;15.49;42.28;96046.25;5004161;28;19980;-69
2022/05/18 00:51:16;;;;;;;;;;;;;;;15.43;42.24;96055.91;5017140;28;20007;-69
2022/05/18 00:53:47;;;;;;;;;;;;;;;15.41;42.46;96054.47;5014291;28;20235;-69
2022/05/18 00:56:13;;;;;;;;;;;;;;;15.40;42.61;96050.13;5007177;28;20087;-70
2022/05/18 00:58:43;;;;;;;;;;;;;;;15.38;42.42;96055.69;5000913;28;20409;-70
2022/05/18 01:01:09;;;;;;;;;;;;;;;15.32;42.82;96051.94;5016878;28;19980;-70
2022/05/18 01:03:35;;;;;;;;;;;;;;;15.29;42.67;96052.34;5019204;28;20427;-70
2022/05/18 01:06:20;;;;;;;;;;;;;;;15.22;43.08;96052.31;5022542;28;19962;-70
2022/05/18 01:08:53;;;;;;;;;;;;;;;15.22;42.78;96049.63;5020521;28;19985;-70
2022/05/18 01:11:18;;;;;;;;;;;;;;;15.23;42.82;96047.78;5021972;28;20413;-70
2022/05/18 01:13:43;;;;;;;;;;;;;;;15.22;42.22;96044.25;5009503;28;20020;-69
2022/05/18 01:16:08;;;;;;;;;;;;;;;15.23;42.29;96042.41;5021393;28;20063;-69
2022/05/18 01:18:34;;;;;;;;;;;;;;;15.17;42.57;96038.66;5013785;28;20244;-69
2022/05/18 01:20:59;;;;;;;;;;;;;;;15.17;42.75;96044.03;5021865;28;20029;-69
2022/05/18 01:23:43;;;;;;;;;;;;;;;15.21;42.25;96045.28;5008666;28;19993;-69
2022/05/18 01:26:18;;;;;;;;;;;;;;;15.27;42.29;96042.84;5021837;28;19955;-70
2022/05/18 01:28:49;;;;;;;;;;;;;;;15.29;42.36;96041.59;5018419;28;19986;-69
2022/05/18 01:31:14;;;;;;;;;;;;;;;15.35;42.81;96040.00;5019547;28;20506;-70
2022/05/18 01:33:40;;;;;;;;;;;;;;;15.43;42.42;96041.69;5008924;28;20061;-70
2022/05/18 01:36:05;;;;;;;;;;;;;;;15.54;41.82;96040.28;5022079;28;20060;-70
2022/05/18 01:38:32;;;;;;;;;;;;;;;15.59;42.04;96041.38;5017888;28;19996;-70
2022/05/18 01:41:02;;;;;;;;;;;;;;;15.70;41.57;96039.13;5021659;28;19973;-70
2022/05/18 01:43:27;;;;;;;;;;;;;;;15.79;41.14;96037.94;5008614;28;20496;-70
2022/05/18 01:45:53;;;;;;;;;;;;;;;15.90;40.98;96036.53;5020739;28;19957;-70
2022/05/18 01:48:20;;;;;;;;;;;;;;;16.03;40.64;96045.66;5008390;28;20572;-70
2022/05/18 01:50:45;;;;;;;;;;;;;;;16.05;40.98;96040.91;5036227;28;19966;-69
2022/05/18 01:53:10;;;;;;;;;;;;;;;16.16;40.50;96045.69;5011514;28;20510;-70
2022/05/18 01:55:35;;;;;;;;;;;;;;;16.29;41.00;96044.91;5018690;28;20050;-69
2022/05/18 01:58:01;;;;;;;;;;;;;;;16.36;41.00;96044.94;5013652;28;19962;-69
2022/05/18 02:00:26;;;;;;;;;;;;;;;16.38;40.13;96046.38;5016744;28;19994;-69
2022/05/18 02:02:51;;;;;;;;;;;;;;;16.38;40.60;96054.44;5008056;28;20068;-69
2022/05/18 02:05:17;;;;;;;;;;;;;;;16.45;39.95;96056.31;5022218;28;20000;-69
2022/05/18 02:07:42;;;;;;;;;;;;;;;16.52;40.04;96055.28;5011097;28;19980;-70
2022/05/18 02:10:08;;;;;;;;;;;;;;;16.55;40.28;96059.41;5009369;28;19993;-70
2022/05/18 02:12:34;;;;;;;;;;;;;;;16.66;39.75;96058.00;5010833;28;20241;-70
2022/05/18 02:14:59;;;;;;;;;;;;;;;16.71;39.32;96060.03;5019065;28;20395;-70
2022/05/18 02:17:25;;;;;;;;;;;;;;;16.71;39.03;96055.50;5008464;28;19970;-70
2022/05/18 02:19:50;;;;;;;;;;;;;;;16.75;39.47;96054.06;5021676;28;20150;-70
2022/05/18 02:22:16;;;;;;;;;;;;;;;16.81;38.61;96063.16;5008321;28;20343;-70
2022/05/18 02:24:41;;;;;;;;;;;;;;;16.78;38.95;96060.88;5021561;28;19982;-69
2022/05/18 02:27:06;;;;;;;;;;;;;;;16.79;38.86;96067.88;5012109;28;20011;-66
2022/05/18 02:29:31;;;;;;;;;;;;;;;16.80;39.68;96058.81;5021489;28;19990;-70
2022/05/18 02:31:57;;;;;;;;;;;;;;;16.85;38.84;96067.06;5010848;28;20273;-67
2022/05/18 02:34:22;;;;;;;;;;;;;;;16.85;39.78;96061.69;5011591;28;19969;-67
2022/05/18 02:36:48;;;;;;;;;;;;;;;16.85;40.13;96067.06;5016737;28;19981;-66
2022/05/18 02:39:13;;;;;;;;;;;;;;;16.85;39.11;96063.56;5016170;28;20014;-66
2022/05/18 02:41:39;;;;;;;;;;;;;;;16.89;39.17;96059.41;5015865;28;20073;-66
2022/05/18 02:44:04;;;;;;;;;;;;;;;16.90;39.12;96058.41;5024852;28;19978;-66
2022/05/18 02:46:29;;;;;;;;;;;;;;;16.94;38.50;96056.94;5015674;28;19994;-66
2022/05/18 02:48:55;;;;;;;;;;;;;;;16.94;39.29;96061.47;5025462;28;20553;-66
2022/05/18 02:51:22;;;;;;;;;;;;;;;16.94;39.32;96056.09;5019999;28;20472;-66
2022/05/18 02:53:47;;;;;;;;;;;;;;;16.94;39.97;96065.00;5025397;28;20397;-66
2022/05/18 02:56:14;;;;;;;;;;;;;;;16.96;38.27;96060.22;5011590;28;19989;-66
2022/05/18 02:58:47;;;;;;;;;;;;;;;16.97;38.58;96061.91;5025215;28;20300;-66
2022/05/18 03:01:17;;;;;;;;;;;;;;;17.01;38.49;96067.69;5010664;28;19978;-66
2022/05/18 03:03:44;;;;;;;;;;;;;;;17.05;38.96;96068.09;5005370;28;20335;-66
2022/05/18 03:06:09;;;;;;;;;;;;;;;17.02;38.69;96070.19;5022441;28;19960;-66
2022/05/18 03:08:35;;;;;;;;;;;;;;;17.07;38.29;96068.72;5023719;28;19993;-66
2022/05/18 03:11:00;;;;;;;;;;;;;;;17.08;38.59;96071.19;5024169;28;19979;-66
2022/05/18 03:13:26;;;;;;;;;;;;;;;17.11;37.98;96076.19;5018020;28;20425;-66
2022/05/18 03:15:51;;;;;;;;;;;;;;;17.08;37.89;96073.06;5017970;28;20369;-66
2022/05/18 03:18:16;;;;;;;;;;;;;;;17.07;37.83;96072.25;5020387;28;19990;-69
2022/05/18 03:23:34;;;;;;;;;;;;;;;16.99;38.48;96072.44;5018298;28;20422;-69
2022/05/18 03:26:19;;;;;;;;;;;;;;;16.99;38.34;96081.34;5018990;28;19970;-69
2022/05/18 03:28:45;;;;;;;;;;;;;;;16.85;39.57;96074.31;5015509;28;19981;-69
2022/05/18 03:31:10;;;;;;;;;;;;;;;16.96;38.67;96089.81;5013861;28;20699;-69
2022/05/18 03:33:36;;;;;;;;;;;;;;;16.92;39.26;96090.47;5012553;28;20659;-69
2022/05/18 03:36:01;;;;;;;;;;;;;;;16.94;38.25;96091.91;5020557;28;20314;-69
2022/05/18 03:38:27;;;;;;;;;;;;;;;16.87;38.26;96091.88;5007039;28;19957;-69
2022/05/18 03:40:52;;;;;;;;;;;;;;;16.90;38.89;96087.97;5016924;28;19980;-69
2022/05/18 03:43:18;;;;;;;;;;;;;;;16.92;38.70;96090.47;5012471;28;20482;-69
2022/05/18 03:45:43;;;;;;;;;;;;;;;16.87;39.23;96089.19;5024157;28;19971;-69
2022/05/18 03:48:11;;;;;;;;;;;;;;;16.85;38.42;96087.75;5019752;28;19986;-69
2022/05/18 03:50:37;;;;;;;;;;;;;;;16.85;38.33;96083.22;5023785;28;19974;-69
2022/05/18 03:53:02;;;;;;;;;;;;;;;16.74;39.00;96089.19;5009424;28;19975;-69
2022/05/18 03:55:27;;;;;;;;;;;;;;;16.74;38.60;96089.19;5023173;28;20434;-69
2022/05/18 03:57:52;;;;;;;;;;;;;;;16.73;39.39;96093.75;5021911;28;19963;-69
2022/05/18 04:00:18;;;;;;;;;;;;;;;16.75;39.25;96090.84;5022387;28;19979;-69
2022/05/18 04:02:43;;;;;;;;;;;;;;;16.67;39.42;96102.66;5022949;28;20424;-69
2022/05/18 04:05:11;;;;;;;;;;;;;;;16.72;38.85;96092.09;5022277;28;19990;-69
2022/05/18 04:07:36;;;;;;;;;;;;;;;16.74;38.87;96095.41;5010888;28;20459;-70
2022/05/18 04:10:02;;;;;;;;;;;;;;;16.78;38.76;96103.88;5018313;28;20334;-69
2022/05/18 04:12:27;;;;;;;;;;;;;;;16.80;38.50;96098.31;5009988;28;19990;-69
2022/05/18 04:14:54;;;;;;;;;;;;;;;16.71;40.30;96106.56;5023378;28;19959;-69
2022/05/18 04:17:20;;;;;;;;;;;;;;;16.73;39.81;96099.13;5009949;28;20439;-69
2022/05/18 04:19:46;;;;;;;;;;;;;;;16.75;39.23;96105.13;5023270;28;19978;-69
2022/05/18 04:22:11;;;;;;;;;;;;;;;16.71;38.33;96111.94;5011361;28;19957;-69
2022/05/18 04:24:36;;;;;;;;;;;;;;;16.70;39.81;96113.00;5020849;28;19980;-70
2022/05/18 04:27:02;;;;;;;;;;;;;;;16.74;39.59;96116.09;5011096;28;20626;-69
2022/05/18 04:29:27;;;;;;;;;;;;;;;16.84;38.60;96121.06;5021134;28;20406;-69
2022/05/18 04:31:52;;;;;;;;;;;;;;;16.79;38.94;96120.84;5010701;28;19995;-70
2022/05/18 04:34:18;;;;;;;;;;;;;;;16.77;39.12;96123.75;5023505;28;19953;-70
2022/05/18 04:36:43;;;;;;;;;;;;;;;16.79;39.21;96124.34;5009401;28;19985;-70
2022/05/18 04:39:08;;;;;;;;;;;;;;;16.84;38.44;96123.75;5020230;28;20027;-70
2022/05/18 04:41:34;;;;;;;;;;;;;;;16.84;38.72;96129.13;5021173;28;19953;-70
2022/05/18 04:43:59;;;;;;;;;;;;;;;16.95;38.99;96128.50;5022095;28;19979;-70
2022/05/18 04:46:24;;;;;;;;;;;;;;;16.94;38.45;96136.78;5021696;28;19996;-70
2022/05/18 04:48:49;;;;;;;;;;;;;;;16.96;38.91;96132.03;5015215;28;19969;-70
2022/05/18 04:51:14;;;;;;;;;;;;;;;16.98;38.44;96136.16;5022393;28;19997;-70
2022/05/18 04:53:40;;;;;;;;;;;;;;;17.00;38.80;96136.78;5023263;28;19988;-70
2022/05/18 04:56:05;;;;;;;;;;;;;;;17.09;38.17;96137.41;5022288;28;19977;-70
2022/05/18 04:58:30;;;;;;;;;;;;;;;17.14;38.30;96139.50;5004757;28;19952;-70
2022/05/18 05:01:01;;;;;;;;;;;;;;;17.21;37.92;96136.81;5020780;28;19980;-70
2022/05/18 05:03:26;;;;;;;;;;;;;;;17.25;37.24;96144.28;5020690;28;20142;-70
2022/05/18 05:05:52;;;;;;;;;;;;;;;17.33;38.64;96153.97;5019392;28;20087;-70
2022/05/18 05:08:17;;;;;;;;;;;;;;;17.41;37.36;96152.94;5010261;28;20030;-70
2022/05/18 05:10:43;;;;;;;;;;;;;;;17.50;38.93;96154.38;5023022;28;19978;-70
2022/05/18 05:13:08;;;;;;;;;;;;;;;17.65;36.84;96156.81;5009899;28;20215;-70
2022/05/18 05:15:33;;;;;;;;;;;;;;;17.68;38.82;96158.28;5022587;28;19985;-70
2022/05/18 05:17:58;;;;;;;;;;;;;;;17.77;37.15;96153.47;5010120;28;19964;-70
2022/05/18 05:20:24;;;;;;;;;;;;;;;17.88;37.16;96160.13;5022054;28;19993;-70
2022/05/18 05:22:49;;;;;;;;;;;;;;;17.96;36.36;96159.06;5009709;28;20446;-69
2022/05/18 05:25:14;;;;;;;;;;;;;;;18.08;37.38;96156.53;5020847;28;19971;-69
2022/05/18 05:27:40;;;;;;;;;;;;;;;18.18;36.11;96157.72;5016193;28;20008;-69
2022/05/18 05:30:05;;;;;;;;;;;;;;;18.37;36.26;96160.56;5022472;28;20386;-69
2022/05/18 05:32:31;;;;;;;;;;;;;;;18.53;36.68;96153.81;5010652;28;20610;-69
2022/05/18 05:34:56;;;;;;;;;;;;;;;18.72;35.99;96153.13;5021062;28;19950;-69
2022/05/18 05:37:21;;;;;;;;;;;;;;;18.81;35.71;96160.75;5009498;28;19941;-69
2022/05/18 05:39:46;;;;;;;;;;;;;;;18.77;34.47;96159.50;5018200;28;20058;-69
2022/05/18 05:42:12;;;;;;;;;;;;;;;18.77;35.14;96156.81;5015165;28;20411;-69
2022/05/18 05:44:37;;;;;;;;;;;;;;;18.72;34.60;96159.34;5019942;28;19976;-69
2022/05/18 05:47:03;;;;;;;;;;;;;;;18.91;34.21;96157.56;5013550;28;20018;-70
2022/05/18 05:49:28;;;;;;;;;;;;;;;18.94;33.96;96159.00;5020874;28;20356;-69
2022/05/18 05:51:54;;;;;;;;;;;;;;;18.81;33.94;96155.38;5013982;28;20009;-70
2022/05/18 05:54:19;;;;;;;;;;;;;;;18.63;34.25;96153.38;5020961;28;19966;-69
2022/05/18 05:56:44;;;;;;;;;;;;;;;18.96;33.90;96159.59;5015167;28;20484;-69
2022/05/18 05:59:09;;;;;;;;;;;;;;;19.07;34.40;96163.47;5011184;28;19957;-69
2022/05/18 06:01:35;;;;;;;;;;;;;;;19.13;33.44;96164.44;5006731;28;20439;-70
2022/05/18 06:04:00;;;;;;;;;;;;;;;19.27;35.18;96168.72;5021997;28;20606;-70
2022/05/18 06:06:25;;;;;;;;;;;;;;;19.38;33.09;96169.06;5011700;28;20059;-70
2022/05/18 06:08:51;;;;;;;;;;;;;;;19.42;33.80;96178.38;5015199;28;20056;-70
2022/05/18 06:11:16;;;;;;;;;;;;;;;19.47;32.56;96167.72;5012195;28;19969;-70
2022/05/18 06:13:41;;;;;;;;;;;;;;;19.84;32.13;96173.19;5020082;28;19968;-69
2022/05/18 06:16:08;;;;;;;;;;;;;;;19.99;34.03;96177.44;5013396;28;19962;-70
2022/05/18 06:18:34;;;;;;;;;;;;;;;19.85;33.99;96179.38;5025823;28;20252;-70
2022/05/18 06:20:59;;;;;;;;;;;;;;;20.00;34.60;96184.47;5011219;28;20451;-69
2022/05/18 06:23:24;;;;;;;;;;;;;;;19.74;33.31;96182.88;5019190;28;20426;-69
2022/05/18 06:25:49;;;;;;;;;;;;;;;19.73;32.52;96187.44;5017164;28;19937;-69
2022/05/18 06:28:14;;;;;;;;;;;;;;;19.77;32.97;96183.22;5018545;28;19962;-69
2022/05/18 06:30:40;;;;;;;;;;;;;;;20.07;32.51;96189.78;5020776;28;20073;-68
2022/05/18 06:33:05;;;;;;;;;;;;;;;20.30;33.04;96202.66;5014550;28;19998;-69
2022/05/18 06:35:30;;;;;;;;;;;;;;;20.35;32.45;96194.66;5023753;28;20505;-69
2022/05/18 06:37:56;;;;;;;;;;;;;;;19.47;33.77;96205.50;5023332;28;19955;-69
2022/05/18 06:41:21;;;;;;;;;;;;;;;19.83;34.33;96203.97;5012364;28;19963;-70
2022/05/18 06:43:06;;;;;;;;;;;;;;;20.18;33.35;96207.13;5023201;28;19952;-69
2022/05/18 06:45:32;;;;;;;;;;;;;;;20.33;31.89;96202.16;5020717;28;20128;-69
2022/05/18 06:47:57;;;;;;;;;;;;;;;20.65;33.10;96213.88;5020057;28;19960;-69
2022/05/18 06:50:22;;;;;;;;;;;;;;;20.98;31.80;96207.19;5021672;28;19959;-69
2022/05/18 06:52:47;;;;;;;;;;;;;;;21.06;31.54;96204.13;5024520;28;19955;-69
2022/05/18 06:55:13;;;;;;;;;;;;;;;21.33;30.58;96197.50;5013305;28;20051;-70
2022/05/18 06:57:38;;;;;;;;;;;;;;;21.28;31.50;96203.59;5022458;28;19976;-71
2022/05/18 07:00:04;;;;;;;;;;;;;;;20.74;32.10;96210.63;5018272;28;19980;-71
2022/05/18 07:02:29;;;;;;;;;;;;;;;20.99;31.51;96204.25;5019356;28;19933;-71
2022/05/18 07:04:55;;;;;;;;;;;;;;;21.55;31.16;96211.28;5016688;28;19955;-71
2022/05/18 07:07:20;;;;;;;;;;;;;;;21.43;30.35;96205.06;5017453;28;20400;-70
2022/05/18 07:09:45;;;;;;;;;;;;;;;21.45;30.60;96211.88;5008178;28;19976;-70
2022/05/18 07:12:11;;;;;;;;;;;;;;;21.32;31.08;96201.28;5018992;28;20725;-71
2022/05/18 07:14:36;;;;;;;;;;;;;;;21.54;31.08;96209.66;5016175;28;20735;-70
2022/05/18 07:17:01;;;;;;;;;;;;;;;20.39;33.07;96205.84;5017200;28;20463;-70
2022/05/18 07:19:30;;;;;;;;;;;;;;;21.26;31.15;96203.00;5013620;28;19962;-70
2022/05/18 07:21:55;;;;;;;;;;;;;;;21.40;31.31;96200.94;5008613;28;20468;-70
2022/05/18 07:24:21;;;;;;;;;;;;;;;21.58;30.51;96194.56;5010446;28;20020;-70
2022/05/18 07:26:46;;;;;;;;;;;;;;;22.12;30.30;96201.75;5016919;28;20270;-70
2022/05/18 07:29:12;;;;;;;;;;;;;;;21.92;30.05;96195.91;5017226;28;19985;-70
2022/05/18 07:34:21;;;;;;;;;;;;;;;22.38;29.65;96191.44;5017626;28;20350;-70
2022/05/18 07:36:47;;;;;;;;;;;;;;;22.29;29.41;96195.59;5015274;28;20155;-71
2022/05/18 07:39:12;;;;;;;;;;;;;;;22.47;29.21;96188.34;5011757;28;22980;-70
2022/05/18 07:41:37;;;;;;;;;;;;;;;22.91;28.46;96196.78;5017629;28;19942;-70
2022/05/18 07:44:03;;;;;;;;;;;;;;;21.64;29.56;96204.50;5012775;28;19929;-70
2022/05/18 07:46:28;;;;;;;;;;;;;;;22.28;29.18;96202.09;5007155;28;19959;-70
2022/05/18 07:48:53;;;;;;;;;;;;;;;22.45;28.58;96194.03;5014244;28;20058;-70
2022/05/18 07:51:18;;;;;;;;;;;;;;;22.39;29.49;96197.69;5012334;28;19975;-70
2022/05/18 07:53:44;;;;;;;;;;;;;;;22.71;28.65;96204.56;5009504;28;19994;-71
2022/05/18 07:56:09;;;;;;;;;;;;;;;23.03;28.02;96204.88;5011393;28;20422;-70
2022/05/18 07:58:34;;;;;;;;;;;;;;;22.24;29.25;96201.75;5022326;28;19944;-70
2022/05/18 08:00:59;;;;;;;;;;;;;;;19.62;33.82;96205.19;5007349;28;19925;-70
2022/05/18 08:03:25;;;;;;;;;;;;;;;21.49;30.93;96202.22;5013396;28;19957;-70
2022/05/18 08:05:50;;;;;;;;;;;;;;;22.28;28.85;96207.50;5012319;28;20097;-70
2022/05/18 08:08:16;;;;;;;;;;;;;;;22.48;28.75;96208.97;5016202;28;20333;-70
2022/05/18 08:16:09;;;;;;;;;;;;;;;23.08;28.23;96206.06;5017077;28;20504;-70
2022/05/18 08:18:34;;;;;;;;;;;;;;;22.99;28.81;96205.63;5010381;28;20254;-70
2022/05/18 08:21:00;;;;;;;;;;;;;;;22.34;28.89;96211.16;5019754;28;19953;-70
2022/05/18 08:23:25;;;;;;;;;;;;;;;23.02;28.37;96216.00;5013942;28;19952;-69
2022/05/18 08:25:54;;;;;;;;;;;;;;;23.17;28.04;96218.16;5020932;28;19921;-71
2022/05/18 08:28:19;;;;;;;;;;;;;;;22.63;29.18;96216.63;5018745;28;20426;-69
2022/05/18 08:30:45;;;;;;;;;;;;;;;22.22;29.91;96216.59;5013232;28;19995;-69
2022/05/18 08:33:10;;;;;;;;;;;;;;;22.86;28.73;96213.00;5020343;28;20015;-69
2022/05/18 08:35:35;;;;;;;;;;;;;;;23.41;28.26;96209.88;5007657;28;19971;-69
2022/05/18 08:38:01;;;;;;;;;;;;;;;23.70;28.02;96215.22;5015511;28;20024;-68
2022/05/18 08:40:29;;;;;;;;;;;;;;;24.10;27.23;96213.34;5008884;28;20338;-69
2022/05/18 08:42:57;;;;;;;;;;;;;;;24.37;26.43;96218.06;5011003;28;19924;-69
2022/05/18 08:45:23;;;;;;;;;;;;;;;23.96;27.35;96209.38;5011991;28;19953;-69
2022/05/18 08:48:18;;;;;;;;;;;;;;;23.55;28.01;96213.06;5013732;28;20395;-69
2022/05/18 08:50:43;;;;;;;;;;;;;;;24.07;26.74;96205.72;5004349;28;19925;-74
2022/05/18 08:53:44;;;;;;;;;;;;;;;24.20;26.82;96212.66;5017633;28;19940;-74
2022/05/18 08:56:17;;;;;;;;;;;;;;;23.96;27.25;96221.03;4979398;28;20263;-74
2022/05/18 08:58:48;;;;;;;;;;;;;;;24.06;27.16;96215.75;5011374;28;19939;-73
2022/05/18 09:01:23;;;;;;;;;;;;;;;24.07;26.72;96211.97;5020843;28;20173;-74
2022/05/18 09:03:50;;;;;;;;;;;;;;;24.27;26.84;96209.78;5021998;28;19921;-74
2022/05/18 09:06:18;;;;;;;;;;;;;;;22.83;29.19;96227.06;5022437;28;19964;-74
2022/05/18 09:08:45;;;;;;;;;;;;;;;24.57;27.09;96213.97;5012375;28;20401;-74
2022/05/18 09:11:15;;;;;;;;;;;;;;;24.29;26.41;96216.59;5000421;28;19921;-74
2022/05/18 09:13:41;;;;;;;;;;;;;;;23.82;27.92;96217.88;5015564;28;19948;-74
2022/05/18 09:16:12;;;;;;;;;;;;;;;24.52;27.05;96217.47;5022223;28;19993;-74
2022/05/18 09:18:56;;;;;;;;;;;;;;;24.77;26.39;96218.81;5022418;28;19917;-74
2022/05/18 09:21:27;;;;;;;;;;;;;;;24.96;26.61;96219.34;5019698;28;20042;-74
2022/05/18 09:24:05;;;;;;;;;;;;;;;24.91;26.08;96226.63;5020244;28;19927;-74
2022/05/18 09:26:40;;;;;;;;;;;;;;;24.78;26.51;96216.94;5017548;28;19926;-74
2022/05/18 09:29:05;;;;;;;;;;;;;;;25.40;25.47;96211.25;5020242;28;20293;-74
2022/05/18 09:31:31;;;;;;;;;;;;;;;24.42;26.43;96212.72;5021015;28;20554;-74
2022/05/18 09:34:15;;;;;;;;;;;;;;;25.00;26.90;96216.91;5022294;28;19924;-74
2022/05/18 09:36:44;;;;;;;;;;;;;;;24.68;26.26;96221.16;5021599;28;20015;-74
2022/05/18 09:39:13;;;;;;;;;;;;;;;24.61;26.29;96223.25;5017190;28;19924;-74
2022/05/18 09:41:59;;;;;;;;;;;;;;;24.02;27.86;96221.94;5028306;28;19966;-74
2022/05/18 09:44:42;;;;;;;;;;;;;;;24.67;26.79;96224.13;5007530;28;19928;-74
2022/05/18 09:47:09;;;;;;;;;;;;;;;24.67;26.60;96226.84;5016672;28;20029;-75
2022/05/18 09:49:44;;;;;;;;;;;;;;;25.37;25.72;96219.94;5020843;28;20424;-75
2022/05/18 09:52:09;;;;;;;;;;;;;;;25.29;25.69;96222.06;5020934;28;19928;-74
2022/05/18 09:54:35;;;;;;;;;;;;;;;25.78;25.02;96220.28;5021058;28;19918;-60
2022/05/18 09:57:09;;;;;;;;;;;;;;;26.36;25.29;96214.09;5019469;28;19959;-74
2022/05/18 09:59:35;;;;;;;;;;;;;;;25.86;25.73;96221.69;5021613;28;20006;-73
2022/05/18 10:07:34;;;;;;;;;;;;;;;25.82;24.96;96223.31;5019466;28;19943;-74
2022/05/18 10:10:22;;;;;;;;;;;;;;;25.83;25.46;96219.50;5005463;28;19917;-75
2022/05/18 10:12:47;;;;;;;;;;;;;;;26.30;23.21;96228.00;5015699;28;20370;-74
2022/05/18 10:15:19;;;;;;;;;;;;;;;26.40;23.87;96228.00;5021137;28;19932;-75
2022/05/18 10:17:45;;;;;;;;;;;;;;;26.81;23.64;96226.56;5021647;28;19971;-75
2022/05/18 10:20:19;;;;;;;;;;;;;;;26.75;23.72;96221.06;5018508;28;19970;-76
2022/05/18 10:22:45;;;;;;;;;;;;;;;26.66;23.29;96216.41;5017615;28;19983;-73
2022/05/18 10:25:14;;;;;;;;;;;;;;;26.55;24.24;96215.53;5020824;28;19921;-75
2022/05/18 10:27:44;;;;;;;;;;;;;;;27.18;23.62;96211.06;5002396;28;20245;-74
2022/05/18 10:30:13;;;;;;;;;;;;;;;27.22;24.24;96217.66;5019958;28;19925;-74
2022/05/18 10:32:57;;;;;;;;;;;;;;;27.18;24.12;96211.88;5020707;28;20179;-75
2022/05/18 10:35:52;;;;;;;;;;;;;;;27.46;23.12;96206.97;5007375;28;20454;-74
2022/05/18 10:38:18;;;;;;;;;;;;;;;27.81;22.63;96211.91;5015264;28;20463;-74
2022/05/18 10:40:43;;;;;;;;;;;;;;;28.35;21.76;96207.66;5018326;28;20024;-74
2022/05/18 10:43:19;;;;;;;;;;;;;;;28.08;21.47;96202.53;5020547;28;19969;-74
2022/05/18 10:45:44;;;;;;;;;;;;;;;27.53;21.84;96203.94;5019049;28;19967;-75
2022/05/18 10:48:13;;;;;;;;;;;;;;;27.83;21.20;96194.09;5015043;28;19921;-74
2022/05/18 10:50:39;;;;;;;;;;;;;;;27.48;21.82;96210.25;5021039;28;19917;-74
2022/05/18 10:53:13;;;;;;;;;;;;;;;27.22;20.93;96202.06;5019884;28;19921;-75
2022/05/18 10:55:53;;;;;;;;;;;;;;;26.52;23.06;96189.59;5020389;28;19920;-74
2022/05/18 10:58:23;;;;;;;;;;;;;;;27.00;22.98;96194.91;5019035;28;19917;-75
2022/05/18 11:00:57;;;;;;;;;;;;;;;27.32;21.45;96203.16;5019457;28;19917;-75
2022/05/18 11:03:37;;;;;;;;;;;;;;;26.66;23.64;96195.38;5022529;28;19924;-75
2022/05/18 11:06:07;;;;;;;;;;;;;;;27.21;22.86;96197.69;5014105;28;19925;-75
2022/05/18 11:08:32;;;;;;;;;;;;;;;27.31;23.29;96191.41;5019339;28;19928;-74
2022/05/18 11:11:01;;;;;;;;;;;;;;;27.16;23.08;96191.41;5022863;28;19925;-74
2022/05/18 11:13:46;;;;;;;;;;;;;;;27.63;21.23;96187.59;5023027;28;19909;-74
2022/05/18 11:16:11;;;;;;;;;;;;;;;28.07;21.40;96174.34;5024086;28;20003;-74
2022/05/18 11:18:55;;;;;;;;;;;;;;;28.38;20.24;96176.19;5024382;28;20000;-75
2022/05/18 11:21:20;;;;;;;;;;;;;;;28.06;20.79;96172.72;5016435;28;20045;-74
2022/05/18 11:23:51;;;;;;;;;;;;;;;28.36;21.97;96176.47;5024157;28;20004;-74
2022/05/18 11:26:21;;;;;;;;;;;;;;;28.56;21.33;96173.91;5023777;28;19925;-74
2022/05/18 11:28:46;;;;;;;;;;;;;;;28.53;20.51;96176.13;5022165;28;20452;-75
2022/05/18 11:31:30;;;;;;;;;;;;;;;28.56;21.47;96173.91;5023075;28;19980;-74
2022/05/18 11:34:01;;;;;;;;;;;;;;;29.28;19.21;96162.50;5024652;28;19917;-74
2022/05/18 11:36:33;;;;;;;;;;;;;;;29.15;18.46;96160.38;5022622;28;19988;-74
2022/05/18 11:39:03;;;;;;;;;;;;;;;28.26;20.57;96163.66;5014000;28;19924;-73
2022/05/18 11:41:30;;;;;;;;;;;;;;;28.82;20.12;96171.84;5020357;28;19921;-73
2022/05/18 11:44:01;;;;;;;;;;;;;;;29.14;20.01;96169.72;5020440;28;20370;-73
2022/05/18 11:46:39;;;;;;;;;;;;;;;27.54;20.41;96164.59;5019162;28;19924;-73
2022/05/18 11:49:10;;;;;;;;;;;;;;;27.99;21.11;96156.59;5023926;28;19983;-73
2022/05/18 11:51:39;;;;;;;;;;;;;;;28.93;19.80;96156.19;5019923;28;19928;-73
2022/05/18 11:54:07;;;;;;;;;;;;;;;29.39;19.61;96165.13;5021457;28;19933;-73
2022/05/18 11:56:36;;;;;;;;;;;;;;;29.24;20.09;96157.88;5022478;28;19921;-74
2022/05/18 11:59:25;;;;;;;;;;;;;;;29.56;18.96;96168.28;5010496;28;19924;-74
2022/05/18 12:01:53;;;;;;;;;;;;;;;30.22;18.54;96156.13;5019464;28;19921;-74
2022/05/18 12:04:27;;;;;;;;;;;;;;;29.68;19.72;96158.88;5023864;28;20083;-73
2022/05/18 12:07:01;;;;;;;;;;;;;;;29.89;18.20;96153.16;5021874;28;20349;-73
2022/05/18 12:09:35;;;;;;;;;;;;;;;29.84;18.81;96147.75;5008099;28;19918;-73
2022/05/18 12:12:06;;;;;;;;;;;;;;;29.96;18.88;96150.88;5008839;28;19931;-73
2022/05/18 12:14:48;;;;;;;;;;;;;;;29.42;18.31;96157.19;5021494;28;20524;-73
2022/05/18 12:17:19;;;;;;;;;;;;;;;28.69;19.23;96150.59;5021186;28;19921;-73
2022/05/18 12:19:44;;;;;;;;;;;;;;;28.97;19.00;96146.28;5018065;28;20275;-73
2022/05/18 12:22:36;;;;;;;;;;;;;;;29.45;19.90;96153.03;5023484;28;20074;-73
2022/05/18 12:25:01;;;;;;;;;;;;;;;29.86;18.34;96151.81;5014843;28;20271;-74
2022/05/18 12:27:26;;;;;;;;;;;;;;;30.33;19.13;96149.38;5018488;28;20388;-73
2022/05/18 12:29:52;;;;;;;;;;;;;;;30.50;18.84;96153.56;5018318;28;19961;-74
2022/05/18 12:32:17;;;;;;;;;;;;;;;31.11;17.33;96152.97;5014601;28;20023;-73
2022/05/18 12:34:44;;;;;;;;;;;;;;;31.53;17.05;96158.59;5020792;28;20007;-73
2022/05/18 12:37:29;;;;;;;;;;;;;;;31.75;17.52;96157.13;5019780;28;19971;-74
2022/05/18 12:40:03;;;;;;;;;;;;;;;31.82;17.22;96154.81;5003938;28;19980;-74
2022/05/18 12:42:29;;;;;;;;;;;;;;;32.20;16.53;96155.75;5016463;28;20166;-74
2022/05/18 12:45:01;;;;;;;;;;;;;;;32.06;15.83;96153.78;5020445;28;19954;-74
2022/05/18 12:47:39;;;;;;;;;;;;;;;31.98;16.07;96154.50;5022107;28;19921;-74
2022/05/18 12:50:18;;;;;;;;;;;;;;;31.99;17.88;96145.91;5021442;28;19948;-74
2022/05/18 12:52:48;;;;;;;;;;;;;;;32.03;16.22;96148.88;5008568;28;20622;-74
2022/05/18 12:55:17;;;;;;;;;;;;;;;31.63;16.04;96157.63;5020909;28;20003;-73
2022/05/18 12:57:42;;;;;;;;;;;;;;;27.67;19.36;96156.97;5018147;28;19922;-73
2022/05/18 13:00:07;;;;;;;;;;;;;;;29.59;19.28;96147.69;5022327;28;19921;-73
2022/05/18 13:02:43;;;;;;;;;;;;;;;31.09;17.57;96149.69;5022454;28;19913;-73
2022/05/18 13:05:09;;;;;;;;;;;;;;;31.30;17.83;96141.94;5020049;28;20293;-73
2022/05/18 13:07:35;;;;;;;;;;;;;;;31.90;18.12;96144.19;5021544;28;19978;-73